sensor_id;sensor_type;location;lat;lon;timestamp;temperature;humidity
2855;DHT22;1435;49.472;10.940;2022-10-17T00:01:28;15.30;99.90
2855;DHT22;1435;49.472;10.940;2022-10-17T00:06:31;15.10;99.90
2855;DHT22;1435;49.472;10.940;2022-10-17T00:11:32;15.10;99.90
2855;DHT22;1435;49.472;10.940;2022-10-17T00:16:35;15.00;99.90
2855;DHT22;1435;49.472;10.940;2022-10-17T00:21:38;14.90;99.90
2855;DHT22;1435;49.472;10.940;2022-10-17T00:26:40;14.80;99.90
2855;DHT22;1435;49.472;10.940;2022-10-17T00:31:42;14.70;99.90
2855;DHT22;1435;49.472;10.940;2022-10-17T00:36:45;14.60;99.90
2855;DHT22;1435;49.472;10.940;2022-10-17T00:41:46;14.60;99.90
2855;DHT22;1435;49.472;10.940;2022-10-17T00:46:48;14.50;99.90
2855;DHT22;1435;49.472;10.940;2022-10-17T00:51:54;14.50;99.90
2855;DHT22;1435;49.472;10.940;2022-10-17T00:56:56;14.50;99.90
2855;DHT22;1435;49.472;10.940;2022-10-17T01:02:00;14.40;99.90
2855;DHT22;1435;49.472;10.940;2022-10-17T01:07:03;14.40;99.90
2855;DHT22;1435;49.472;10.940;2022-10-17T01:12:10;14.30;99.90
2855;DHT22;1435;49.472;10.940;2022-10-17T01:17:20;14.30;99.90
2855;DHT22;1435;49.472;10.940;2022-10-17T01:22:32;14.20;99.90
2855;DHT22;1435;49.472;10.940;2022-10-17T01:27:52;14.20;99.90
2855;DHT22;1435;49.472;10.940;2022-10-17T01:33:02;14.10;99.90
2855;DHT22;1435;49.472;10.940;2022-10-17T01:38:09;14.00;99.90
2855;DHT22;1435;49.472;10.940;2022-10-17T01:43:17;13.90;99.90
2855;DHT22;1435;49.472;10.940;2022-10-17T01:48:24;13.80;99.90
2855;DHT22;1435;49.472;10.940;2022-10-17T01:53:32;13.80;99.90
2855;DHT22;1435;49.472;10.940;2022-10-17T01:58:38;13.80;99.90
2855;DHT22;1435;49.472;10.940;2022-10-17T02:03:44;13.70;99.90
2855;DHT22;1435;49.472;10.940;2022-10-17T02:08:49;13.70;99.90
2855;DHT22;1435;49.472;10.940;2022-10-17T02:14:16;13.60;99.90
2855;DHT22;1435;49.472;10.940;2022-10-17T02:19:33;13.60;99.90
2855;DHT22;1435;49.472;10.940;2022-10-17T02:24:42;13.40;99.90
2855;DHT22;1435;49.472;10.940;2022-10-17T02:29:48;13.40;99.90
2855;DHT22;1435;49.472;10.940;2022-10-17T02:34:54;13.40;99.90
2855;DHT22;1435;49.472;10.940;2022-10-17T02:39:59;13.40;99.90
2855;DHT22;1435;49.472;10.940;2022-10-17T02:45:03;13.40;99.90
2855;DHT22;1435;49.472;10.940;2022-10-17T02:50:07;13.30;99.90
2855;DHT22;1435;49.472;10.940;2022-10-17T02:55:13;13.20;99.90
2855;DHT22;1435;49.472;10.940;2022-10-17T03:00:18;13.20;99.90
2855;DHT22;1435;49.472;10.940;2022-10-17T03:05:23;13.10;99.90
2855;DHT22;1435;49.472;10.940;2022-10-17T03:10:25;13.10;99.90
2855;DHT22;1435;49.472;10.940;2022-10-17T03:15:27;13.00;99.90
2855;DHT22;1435;49.472;10.940;2022-10-17T03:20:30;13.00;99.90
2855;DHT22;1435;49.472;10.940;2022-10-17T03:25:31;13.00;99.90
2855;DHT22;1435;49.472;10.940;2022-10-17T03:30:33;13.00;99.90
2855;DHT22;1435;49.472;10.940;2022-10-17T03:35:38;12.90;99.90
2855;DHT22;1435;49.472;10.940;2022-10-17T03:40:40;12.90;99.90
2855;DHT22;1435;49.472;10.940;2022-10-17T03:45:42;12.90;99.90
2855;DHT22;1435;49.472;10.940;2022-10-17T03:50:45;12.90;99.90
2855;DHT22;1435;49.472;10.940;2022-10-17T03:55:47;12.90;99.90
2855;DHT22;1435;49.472;10.940;2022-10-17T04:00:48;12.70;99.90
2855;DHT22;1435;49.472;10.940;2022-10-17T04:05:51;12.70;99.90
2855;DHT22;1435;49.472;10.940;2022-10-17T04:10:57;12.70;99.90
2855;DHT22;1435;49.472;10.940;2022-10-17T04:16:03;12.60;99.90
2855;DHT22;1435;49.472;10.940;2022-10-17T04:21:07;12.60;99.90
2855;DHT22;1435;49.472;10.940;2022-10-17T04:26:08;12.60;99.90
2855;DHT22;1435;49.472;10.940;2022-10-17T04:31:12;12.60;99.90
2855;DHT22;1435;49.472;10.940;2022-10-17T04:36:17;12.60;99.90
2855;DHT22;1435;49.472;10.940;2022-10-17T04:41:19;12.60;99.90
2855;DHT22;1435;49.472;10.940;2022-10-17T04:46:21;12.50;99.90
2855;DHT22;1435;49.472;10.940;2022-10-17T04:51:24;12.50;99.90
2855;DHT22;1435;49.472;10.940;2022-10-17T04:56:26;12.50;99.90
2855;DHT22;1435;49.472;10.940;2022-10-17T05:01:28;12.50;99.90
2855;DHT22;1435;49.472;10.940;2022-10-17T05:06:31;12.50;99.90
2855;DHT22;1435;49.472;10.940;2022-10-17T05:11:34;12.40;99.90
2855;DHT22;1435;49.472;10.940;2022-10-17T05:16:35;12.40;99.90
2855;DHT22;1435;49.472;10.940;2022-10-17T05:21:38;12.50;99.90
2855;DHT22;1435;49.472;10.940;2022-10-17T05:26:40;12.40;99.90
2855;DHT22;1435;49.472;10.940;2022-10-17T05:31:42;12.40;99.90
2855;DHT22;1435;49.472;10.940;2022-10-17T05:36:45;12.40;99.90
2855;DHT22;1435;49.472;10.940;2022-10-17T05:41:47;12.40;99.90
2855;DHT22;1435;49.472;10.940;2022-10-17T05:46:50;12.40;99.90
2855;DHT22;1435;49.472;10.940;2022-10-17T05:51:53;12.40;99.90
2855;DHT22;1435;49.472;10.940;2022-10-17T05:56:55;12.40;99.90
2855;DHT22;1435;49.472;10.940;2022-10-17T06:01:57;12.40;99.90
2855;DHT22;1435;49.472;10.940;2022-10-17T06:07:00;12.40;99.90
2855;DHT22;1435;49.472;10.940;2022-10-17T06:12:02;12.40;99.90
2855;DHT22;1435;49.472;10.940;2022-10-17T06:17:04;12.40;99.90
2855;DHT22;1435;49.472;10.940;2022-10-17T06:22:07;12.40;99.90
2855;DHT22;1435;49.472;10.940;2022-10-17T06:27:08;12.40;99.90
2855;DHT22;1435;49.472;10.940;2022-10-17T06:32:10;12.40;99.90
2855;DHT22;1435;49.472;10.940;2022-10-17T06:37:13;12.40;99.90
2855;DHT22;1435;49.472;10.940;2022-10-17T06:42:15;12.50;99.90
2855;DHT22;1435;49.472;10.940;2022-10-17T06:47:17;12.50;99.90
2855;DHT22;1435;49.472;10.940;2022-10-17T06:52:20;12.60;99.90
2855;DHT22;1435;49.472;10.940;2022-10-17T06:57:22;12.70;99.90
2855;DHT22;1435;49.472;10.940;2022-10-17T07:02:24;12.80;99.90
2855;DHT22;1435;49.472;10.940;2022-10-17T07:07:29;12.90;99.90
2855;DHT22;1435;49.472;10.940;2022-10-17T07:12:32;13.10;99.90
2855;DHT22;1435;49.472;10.940;2022-10-17T07:17:34;13.20;99.90
2855;DHT22;1435;49.472;10.940;2022-10-17T07:22:37;13.30;99.90
2855;DHT22;1435;49.472;10.940;2022-10-17T07:27:39;13.40;99.90
2855;DHT22;1435;49.472;10.940;2022-10-17T07:32:41;13.50;99.90
2855;DHT22;1435;49.472;10.940;2022-10-17T07:37:44;13.60;99.90
2855;DHT22;1435;49.472;10.940;2022-10-17T07:42:45;13.70;99.90
2855;DHT22;1435;49.472;10.940;2022-10-17T07:47:47;13.80;99.90
2855;DHT22;1435;49.472;10.940;2022-10-17T07:52:50;13.90;99.90
2855;DHT22;1435;49.472;10.940;2022-10-17T07:57:52;14.00;99.90
2855;DHT22;1435;49.472;10.940;2022-10-17T08:02:54;14.10;99.90
2855;DHT22;1435;49.472;10.940;2022-10-17T08:07:57;14.20;99.90
2855;DHT22;1435;49.472;10.940;2022-10-17T08:12:59;14.30;99.90
2855;DHT22;1435;49.472;10.940;2022-10-17T08:18:02;14.40;99.90
2855;DHT22;1435;49.472;10.940;2022-10-17T08:23:05;14.60;99.90
2855;DHT22;1435;49.472;10.940;2022-10-17T08:28:07;14.70;99.90
2855;DHT22;1435;49.472;10.940;2022-10-17T08:33:08;14.90;99.90
2855;DHT22;1435;49.472;10.940;2022-10-17T08:38:11;15.10;99.90
2855;DHT22;1435;49.472;10.940;2022-10-17T08:43:41;15.20;99.90
2855;DHT22;1435;49.472;10.940;2022-10-17T08:48:46;15.40;99.90
2855;DHT22;1435;49.472;10.940;2022-10-17T08:53:55;15.50;99.90
2855;DHT22;1435;49.472;10.940;2022-10-17T08:58:59;15.70;99.90
2855;DHT22;1435;49.472;10.940;2022-10-17T09:09:41;16.20;99.90
2855;DHT22;1435;49.472;10.940;2022-10-17T09:15:10;16.30;99.90
2855;DHT22;1435;49.472;10.940;2022-10-17T09:20:18;16.40;99.90
2855;DHT22;1435;49.472;10.940;2022-10-17T09:25:22;16.50;99.90
2855;DHT22;1435;49.472;10.940;2022-10-17T09:30:34;16.60;99.90
2855;DHT22;1435;49.472;10.940;2022-10-17T09:35:37;16.80;99.90
2855;DHT22;1435;49.472;10.940;2022-10-17T09:40:43;17.00;99.90
2855;DHT22;1435;49.472;10.940;2022-10-17T09:45:50;17.10;99.90
2855;DHT22;1435;49.472;10.940;2022-10-17T09:50:55;17.30;99.90
2855;DHT22;1435;49.472;10.940;2022-10-17T09:56:01;17.30;99.90
2855;DHT22;1435;49.472;10.940;2022-10-17T10:01:15;17.40;99.90
2855;DHT22;1435;49.472;10.940;2022-10-17T10:06:18;17.60;99.90
2855;DHT22;1435;49.472;10.940;2022-10-17T10:11:25;17.70;99.90
2855;DHT22;1435;49.472;10.940;2022-10-17T10:16:44;17.80;99.90
2855;DHT22;1435;49.472;10.940;2022-10-17T10:21:54;18.00;99.90
2855;DHT22;1435;49.472;10.940;2022-10-17T10:27:00;18.10;99.90
2855;DHT22;1435;49.472;10.940;2022-10-17T10:32:08;18.20;99.90
2855;DHT22;1435;49.472;10.940;2022-10-17T10:37:17;18.40;99.90
2855;DHT22;1435;49.472;10.940;2022-10-17T10:42:24;18.40;99.90
2855;DHT22;1435;49.472;10.940;2022-10-17T10:47:27;18.60;99.90
2855;DHT22;1435;49.472;10.940;2022-10-17T10:53:06;18.60;99.90
2855;DHT22;1435;49.472;10.940;2022-10-17T10:58:22;18.70;99.90
2855;DHT22;1435;49.472;10.940;2022-10-17T11:03:31;18.90;99.90
2855;DHT22;1435;49.472;10.940;2022-10-17T11:08:39;19.00;99.90
2855;DHT22;1435;49.472;10.940;2022-10-17T11:13:49;19.10;99.90
2855;DHT22;1435;49.472;10.940;2022-10-17T11:18:55;19.20;99.90
2855;DHT22;1435;49.472;10.940;2022-10-17T11:24:04;19.30;99.90
2855;DHT22;1435;49.472;10.940;2022-10-17T11:29:11;19.40;99.90
2855;DHT22;1435;49.472;10.940;2022-10-17T11:34:17;19.50;99.90
2855;DHT22;1435;49.472;10.940;2022-10-17T11:39:28;19.60;99.90
2855;DHT22;1435;49.472;10.940;2022-10-17T11:44:34;19.70;99.90
2855;DHT22;1435;49.472;10.940;2022-10-17T11:49:40;19.70;99.90
2855;DHT22;1435;49.472;10.940;2022-10-17T11:54:50;19.80;99.90
2855;DHT22;1435;49.472;10.940;2022-10-17T12:00:05;19.90;99.90
2855;DHT22;1435;49.472;10.940;2022-10-17T12:05:20;20.00;99.90
2855;DHT22;1435;49.472;10.940;2022-10-17T12:10:31;20.10;99.90
2855;DHT22;1435;49.472;10.940;2022-10-17T12:15:36;20.20;99.90
2855;DHT22;1435;49.472;10.940;2022-10-17T12:20:37;20.30;99.90
2855;DHT22;1435;49.472;10.940;2022-10-17T12:25:48;20.40;99.90
2855;DHT22;1435;49.472;10.940;2022-10-17T12:30:54;20.60;99.90
2855;DHT22;1435;49.472;10.940;2022-10-17T12:41:52;20.80;99.90
2855;DHT22;1435;49.472;10.940;2022-10-17T12:47:35;20.90;99.90
2855;DHT22;1435;49.472;10.940;2022-10-17T12:53:00;21.10;99.90
2855;DHT22;1435;49.472;10.940;2022-10-17T12:58:10;21.20;99.90
2855;DHT22;1435;49.472;10.940;2022-10-17T13:03:42;21.40;99.90
2855;DHT22;1435;49.472;10.940;2022-10-17T13:08:47;21.50;99.90
2855;DHT22;1435;49.472;10.940;2022-10-17T13:13:52;21.70;99.90
2855;DHT22;1435;49.472;10.940;2022-10-17T13:18:56;21.80;99.90
2855;DHT22;1435;49.472;10.940;2022-10-17T13:23:57;21.90;99.90
2855;DHT22;1435;49.472;10.940;2022-10-17T13:29:02;22.00;99.90
2855;DHT22;1435;49.472;10.940;2022-10-17T13:34:14;22.10;99.90
2855;DHT22;1435;49.472;10.940;2022-10-17T13:39:18;22.20;99.90
2855;DHT22;1435;49.472;10.940;2022-10-17T13:44:23;22.30;99.90
2855;DHT22;1435;49.472;10.940;2022-10-17T13:49:33;22.40;99.90
2855;DHT22;1435;49.472;10.940;2022-10-17T13:54:37;22.50;99.90
2855;DHT22;1435;49.472;10.940;2022-10-17T13:59:41;22.50;99.90
2855;DHT22;1435;49.472;10.940;2022-10-17T14:04:58;22.60;99.90
2855;DHT22;1435;49.472;10.940;2022-10-17T14:10:00;22.70;99.90
2855;DHT22;1435;49.472;10.940;2022-10-17T14:15:08;22.80;99.90
2855;DHT22;1435;49.472;10.940;2022-10-17T14:20:17;22.90;99.90
2855;DHT22;1435;49.472;10.940;2022-10-17T14:25:27;23.00;99.90
2855;DHT22;1435;49.472;10.940;2022-10-17T14:30:31;23.10;99.90
2855;DHT22;1435;49.472;10.940;2022-10-17T14:35:36;23.20;99.90
2855;DHT22;1435;49.472;10.940;2022-10-17T14:40:48;23.20;99.90
2855;DHT22;1435;49.472;10.940;2022-10-17T14:45:50;23.30;99.90
2855;DHT22;1435;49.472;10.940;2022-10-17T14:51:07;23.40;99.90
2855;DHT22;1435;49.472;10.940;2022-10-17T14:56:21;23.30;99.90
2855;DHT22;1435;49.472;10.940;2022-10-17T15:01:24;23.30;99.90
2855;DHT22;1435;49.472;10.940;2022-10-17T15:06:28;23.30;99.90
2855;DHT22;1435;49.472;10.940;2022-10-17T15:11:30;23.20;99.90
2855;DHT22;1435;49.472;10.940;2022-10-17T15:16:34;23.00;99.90
2855;DHT22;1435;49.472;10.940;2022-10-17T15:21:37;22.90;99.90
2855;DHT22;1435;49.472;10.940;2022-10-17T15:26:39;22.80;99.90
2855;DHT22;1435;49.472;10.940;2022-10-17T15:31:41;22.90;99.90
2855;DHT22;1435;49.472;10.940;2022-10-17T15:36:48;22.60;99.90
2855;DHT22;1435;49.472;10.940;2022-10-17T15:41:50;22.70;99.90
2855;DHT22;1435;49.472;10.940;2022-10-17T15:46:52;22.40;99.90
2855;DHT22;1435;49.472;10.940;2022-10-17T15:51:57;22.30;99.90
2855;DHT22;1435;49.472;10.940;2022-10-17T15:56:59;22.10;99.90
2855;DHT22;1435;49.472;10.940;2022-10-17T16:02:01;22.00;99.90
2855;DHT22;1435;49.472;10.940;2022-10-17T16:07:07;22.00;99.90
2855;DHT22;1435;49.472;10.940;2022-10-17T16:12:13;21.80;99.90
2855;DHT22;1435;49.472;10.940;2022-10-17T16:17:16;21.60;99.90
2855;DHT22;1435;49.472;10.940;2022-10-17T16:22:23;21.50;99.90
2855;DHT22;1435;49.472;10.940;2022-10-17T16:27:26;21.40;99.90
2855;DHT22;1435;49.472;10.940;2022-10-17T16:32:28;21.30;99.90
2855;DHT22;1435;49.472;10.940;2022-10-17T16:37:31;20.80;99.90
2855;DHT22;1435;49.472;10.940;2022-10-17T16:42:33;20.80;99.90
2855;DHT22;1435;49.472;10.940;2022-10-17T16:47:35;20.80;99.90
2855;DHT22;1435;49.472;10.940;2022-10-17T16:52:38;20.80;99.90
2855;DHT22;1435;49.472;10.940;2022-10-17T16:57:42;20.50;99.90
2855;DHT22;1435;49.472;10.940;2022-10-17T17:02:46;20.40;99.90
2855;DHT22;1435;49.472;10.940;2022-10-17T17:07:49;20.30;99.90
2855;DHT22;1435;49.472;10.940;2022-10-17T17:12:51;20.20;99.90
2855;DHT22;1435;49.472;10.940;2022-10-17T17:17:53;20.00;99.90
2855;DHT22;1435;49.472;10.940;2022-10-17T17:22:56;19.90;99.90
2855;DHT22;1435;49.472;10.940;2022-10-17T17:27:57;19.80;99.90
2855;DHT22;1435;49.472;10.940;2022-10-17T17:33:00;19.70;99.90
2855;DHT22;1435;49.472;10.940;2022-10-17T17:38:03;19.60;99.90
2855;DHT22;1435;49.472;10.940;2022-10-17T17:43:05;19.50;99.90
2855;DHT22;1435;49.472;10.940;2022-10-17T17:48:07;19.40;99.90
2855;DHT22;1435;49.472;10.940;2022-10-17T17:53:12;19.20;99.90
2855;DHT22;1435;49.472;10.940;2022-10-17T17:58:14;19.00;99.90
2855;DHT22;1435;49.472;10.940;2022-10-17T18:03:15;19.00;99.90
2855;DHT22;1435;49.472;10.940;2022-10-17T18:08:19;19.00;99.90
2855;DHT22;1435;49.472;10.940;2022-10-17T18:13:20;18.90;99.90
2855;DHT22;1435;49.472;10.940;2022-10-17T18:18:22;18.70;99.90
2855;DHT22;1435;49.472;10.940;2022-10-17T18:23:25;18.50;99.90
2855;DHT22;1435;49.472;10.940;2022-10-17T18:28:27;18.40;99.90
2855;DHT22;1435;49.472;10.940;2022-10-17T18:33:29;18.20;99.90
2855;DHT22;1435;49.472;10.940;2022-10-17T18:38:32;18.10;99.90
2855;DHT22;1435;49.472;10.940;2022-10-17T18:43:34;17.90;99.90
2855;DHT22;1435;49.472;10.940;2022-10-17T18:48:38;17.90;99.90
2855;DHT22;1435;49.472;10.940;2022-10-17T18:53:45;17.80;99.90
2855;DHT22;1435;49.472;10.940;2022-10-17T18:58:47;17.70;99.90
2855;DHT22;1435;49.472;10.940;2022-10-17T19:03:50;17.60;99.90
2855;DHT22;1435;49.472;10.940;2022-10-17T19:08:54;17.60;99.90
2855;DHT22;1435;49.472;10.940;2022-10-17T19:13:58;17.60;99.90
2855;DHT22;1435;49.472;10.940;2022-10-17T19:19:02;17.40;99.90
2855;DHT22;1435;49.472;10.940;2022-10-17T19:24:10;17.30;99.90
2855;DHT22;1435;49.472;10.940;2022-10-17T19:29:12;17.20;99.90
2855;DHT22;1435;49.472;10.940;2022-10-17T19:34:15;17.00;99.90
2855;DHT22;1435;49.472;10.940;2022-10-17T19:39:20;17.00;99.90
2855;DHT22;1435;49.472;10.940;2022-10-17T19:44:22;16.90;99.90
2855;DHT22;1435;49.472;10.940;2022-10-17T19:49:24;16.90;99.90
2855;DHT22;1435;49.472;10.940;2022-10-17T19:54:27;16.90;99.90
2855;DHT22;1435;49.472;10.940;2022-10-17T19:59:29;16.90;99.90
2855;DHT22;1435;49.472;10.940;2022-10-17T20:04:31;16.80;99.90
2855;DHT22;1435;49.472;10.940;2022-10-17T20:09:34;16.60;99.90
2855;DHT22;1435;49.472;10.940;2022-10-17T20:14:36;16.70;99.90
2855;DHT22;1435;49.472;10.940;2022-10-17T20:19:37;16.60;99.90
2855;DHT22;1435;49.472;10.940;2022-10-17T20:24:41;16.50;99.90
2855;DHT22;1435;49.472;10.940;2022-10-17T20:29:42;16.50;99.90
2855;DHT22;1435;49.472;10.940;2022-10-17T20:34:44;16.50;99.90
2855;DHT22;1435;49.472;10.940;2022-10-17T20:39:47;16.20;99.90
2855;DHT22;1435;49.472;10.940;2022-10-17T20:44:49;16.20;99.90
2855;DHT22;1435;49.472;10.940;2022-10-17T20:49:51;16.20;99.90
2855;DHT22;1435;49.472;10.940;2022-10-17T20:54:54;16.10;99.90
2855;DHT22;1435;49.472;10.940;2022-10-17T20:59:56;16.00;99.90
2855;DHT22;1435;49.472;10.940;2022-10-17T21:04:57;15.90;99.90
2855;DHT22;1435;49.472;10.940;2022-10-17T21:10:00;15.80;99.90
2855;DHT22;1435;49.472;10.940;2022-10-17T21:15:03;15.80;99.90
2855;DHT22;1435;49.472;10.940;2022-10-17T21:20:06;15.70;99.90
2855;DHT22;1435;49.472;10.940;2022-10-17T21:25:09;15.60;99.90
2855;DHT22;1435;49.472;10.940;2022-10-17T21:30:11;15.50;99.90
2855;DHT22;1435;49.472;10.940;2022-10-17T21:35:12;15.50;99.90
2855;DHT22;1435;49.472;10.940;2022-10-17T21:40:16;15.40;99.90
2855;DHT22;1435;49.472;10.940;2022-10-17T21:45:17;15.30;99.90
2855;DHT22;1435;49.472;10.940;2022-10-17T21:50:20;15.30;99.90
2855;DHT22;1435;49.472;10.940;2022-10-17T21:55:23;15.20;99.90
2855;DHT22;1435;49.472;10.940;2022-10-17T22:00:25;15.10;99.90
2855;DHT22;1435;49.472;10.940;2022-10-17T22:05:27;15.10;99.90
2855;DHT22;1435;49.472;10.940;2022-10-17T22:10:31;15.00;99.90
2855;DHT22;1435;49.472;10.940;2022-10-17T22:15:32;14.90;99.90
2855;DHT22;1435;49.472;10.940;2022-10-17T22:20:34;14.80;99.90
2855;DHT22;1435;49.472;10.940;2022-10-17T22:25:37;14.70;99.90
2855;DHT22;1435;49.472;10.940;2022-10-17T22:30:39;14.70;99.90
2855;DHT22;1435;49.472;10.940;2022-10-17T22:35:41;14.70;99.90
2855;DHT22;1435;49.472;10.940;2022-10-17T22:40:45;14.60;99.90
2855;DHT22;1435;49.472;10.940;2022-10-17T22:45:51;14.60;99.90
2855;DHT22;1435;49.472;10.940;2022-10-17T22:50:54;14.50;99.90
2855;DHT22;1435;49.472;10.940;2022-10-17T22:55:59;14.50;99.90
2855;DHT22;1435;49.472;10.940;2022-10-17T23:01:01;14.40;99.90
2855;DHT22;1435;49.472;10.940;2022-10-17T23:06:04;14.40;99.90
2855;DHT22;1435;49.472;10.940;2022-10-17T23:11:07;14.30;99.90
2855;DHT22;1435;49.472;10.940;2022-10-17T23:16:09;14.20;99.90
2855;DHT22;1435;49.472;10.940;2022-10-17T23:21:11;14.20;99.90
2855;DHT22;1435;49.472;10.940;2022-10-17T23:26:14;14.10;99.90
2855;DHT22;1435;49.472;10.940;2022-10-17T23:31:17;14.10;99.90
2855;DHT22;1435;49.472;10.940;2022-10-17T23:36:20;14.00;99.90
2855;DHT22;1435;49.472;10.940;2022-10-17T23:41:23;13.90;99.90
2855;DHT22;1435;49.472;10.940;2022-10-17T23:46:25;14.00;99.90
2855;DHT22;1435;49.472;10.940;2022-10-17T23:51:26;13.90;99.90
2855;DHT22;1435;49.472;10.940;2022-10-17T23:56:29;13.80;99.90
